createdAt,value
2023-02-17T00:02:31.973Z,24.80
2023-02-17T00:05:00.365Z,21.88
2023-02-17T00:07:31.611Z,24.70
2023-02-17T00:09:59.958Z,18.00
2023-02-17T00:12:28.820Z,19.38
2023-02-17T00:14:57.083Z,24.15
2023-02-17T00:17:25.373Z,25.95
2023-02-17T00:19:56.881Z,30.95
2023-02-17T00:22:25.116Z,19.85
2023-02-17T00:24:53.500Z,25.17
2023-02-17T00:27:21.839Z,28.08
2023-02-17T00:29:54.087Z,19.27
2023-02-17T00:32:25.499Z,21.55
2023-02-17T00:34:56.280Z,17.50
2023-02-17T00:37:31.175Z,18.17
2023-02-17T00:39:59.386Z,26.95
2023-02-17T00:42:27.640Z,22.13
2023-02-17T00:45:02.809Z,18.85
2023-02-17T00:47:35.400Z,18.88
2023-02-17T00:50:03.728Z,21.90
2023-02-17T00:52:35.206Z,23.80
2023-02-17T00:55:03.464Z,26.45
2023-02-17T00:57:32.441Z,29.63
2023-02-17T01:00:06.035Z,25.60
2023-02-17T01:02:35.209Z,21.40
2023-02-17T01:05:07.856Z,36.50
2023-02-17T01:07:37.509Z,30.58
2023-02-17T01:10:06.050Z,28.35
2023-02-17T01:12:36.784Z,18.33
2023-02-17T01:15:05.467Z,32.65
2023-02-17T01:17:34.330Z,21.67
2023-02-17T01:20:02.730Z,27.52
2023-02-17T01:22:40.631Z,15.93
2023-02-17T01:25:09.713Z,29.95
2023-02-17T01:27:38.113Z,31.45
2023-02-17T01:30:07.576Z,27.38
2023-02-17T01:32:35.768Z,27.20
2023-02-17T01:35:04.090Z,32.13
2023-02-17T01:37:36.434Z,33.80
2023-02-17T01:40:07.411Z,23.10
2023-02-17T01:42:35.645Z,17.27
2023-02-17T01:45:46.147Z,21.92
2023-02-17T01:48:17.162Z,22.73
2023-02-17T01:50:53.906Z,32.13
2023-02-17T01:53:27.064Z,37.25
2023-02-17T01:55:57.817Z,16.98
2023-02-17T01:58:27.594Z,44.25
2023-02-17T02:00:59.276Z,24.00
2023-02-17T02:03:33.964Z,28.25
2023-02-17T02:06:05.165Z,26.65
2023-02-17T02:08:40.153Z,19.73
2023-02-17T02:11:10.005Z,22.00
2023-02-17T02:13:38.316Z,29.63
2023-02-17T02:16:14.834Z,17.88
2023-02-17T02:18:52.839Z,21.92
2023-02-17T02:21:51.133Z,24.33
2023-02-17T02:24:26.442Z,22.73
2023-02-17T02:27:29.778Z,24.30
2023-02-17T02:30:36.668Z,23.02
2023-02-17T02:33:17.807Z,24.38
2023-02-17T02:35:56.134Z,22.75
2023-02-17T02:38:30.484Z,24.25
2023-02-17T02:41:05.135Z,20.95
2023-02-17T02:43:34.186Z,23.27
2023-02-17T02:46:02.395Z,26.27
2023-02-17T02:48:32.314Z,27.38
2023-02-17T02:51:20.773Z,24.90
2023-02-17T02:54:14.121Z,21.10
2023-02-17T02:57:00.225Z,23.48
2023-02-17T02:59:44.278Z,25.60
2023-02-17T03:02:20.329Z,25.55
2023-02-17T03:04:57.036Z,32.80
2023-02-17T03:07:31.256Z,36.95
2023-02-17T03:10:01.432Z,24.70
2023-02-17T03:12:30.013Z,37.25
2023-02-17T03:15:04.151Z,18.05
2023-02-17T03:17:33.292Z,21.10
2023-02-17T03:20:06.267Z,21.83
2023-02-17T03:22:40.590Z,36.67
2023-02-17T03:25:09.527Z,22.60
2023-02-17T03:27:37.839Z,24.10
2023-02-17T03:30:07.275Z,38.55
2023-02-17T03:32:35.516Z,21.40
2023-02-17T03:35:05.514Z,20.63
2023-02-17T03:37:33.725Z,28.85
2023-02-17T03:40:04.396Z,22.85
2023-02-17T03:42:32.818Z,19.10
2023-02-17T03:45:00.967Z,21.08
2023-02-17T03:47:29.375Z,27.98
2023-02-17T03:49:57.573Z,21.90
2023-02-17T03:52:27.244Z,36.50
2023-02-17T03:54:55.427Z,30.50
2023-02-17T03:57:23.678Z,18.73
2023-02-17T03:59:54.534Z,26.20
2023-02-17T04:02:22.744Z,20.90
2023-02-17T04:04:50.895Z,24.80
2023-02-17T04:07:19.164Z,29.83
2023-02-17T04:09:48.735Z,27.30
2023-02-17T04:12:16.906Z,20.70
2023-02-17T04:14:47.587Z,20.67
2023-02-17T04:17:15.770Z,26.70
2023-02-17T04:19:44.040Z,24.80
2023-02-17T04:22:14.796Z,25.02
2023-02-17T04:24:43.084Z,18.70
2023-02-17T04:27:12.617Z,19.20
2023-02-17T04:29:40.973Z,42.13
2023-02-17T04:32:09.152Z,30.95
2023-02-17T04:34:37.388Z,15.18
2023-02-17T04:37:05.642Z,29.48
2023-02-17T04:39:33.896Z,28.20
2023-02-17T04:42:02.030Z,36.53
2023-02-17T04:44:31.589Z,32.60
2023-02-17T04:46:59.798Z,34.85
2023-02-17T04:49:28.026Z,20.13
2023-02-17T04:51:56.238Z,32.05
2023-02-17T04:54:24.518Z,24.08
2023-02-17T04:56:52.720Z,26.73
2023-02-17T04:59:25.347Z,28.42
2023-02-17T05:01:55.143Z,27.45
2023-02-17T05:04:23.373Z,23.53
2023-02-17T05:06:51.578Z,20.05
2023-02-17T05:09:22.856Z,23.48
2023-02-17T05:11:53.276Z,20.75
2023-02-17T05:14:21.549Z,21.38
2023-02-17T05:16:49.726Z,25.60
2023-02-17T05:19:19.267Z,25.05
2023-02-17T05:21:47.626Z,29.33
2023-02-17T05:24:15.803Z,37.65
2023-02-17T05:26:44.127Z,26.90
2023-02-17T05:29:12.316Z,35.50
2023-02-17T05:31:40.635Z,25.73
2023-02-17T05:34:08.974Z,21.65
2023-02-17T05:36:38.614Z,24.15
2023-02-17T05:39:06.846Z,40.53
2023-02-17T05:41:35.021Z,26.70
2023-02-17T05:44:05.976Z,28.05
2023-02-17T05:46:34.212Z,27.05
2023-02-17T05:49:02.448Z,40.83
2023-02-17T05:51:30.605Z,32.28
2023-02-17T05:54:00.258Z,21.35
2023-02-17T05:56:28.532Z,18.70
2023-02-17T05:58:56.749Z,24.90
2023-02-17T06:01:24.972Z,20.40
2023-02-17T06:03:53.267Z,24.10
2023-02-17T06:06:21.585Z,24.42
2023-02-17T06:08:49.918Z,35.95
2023-02-17T06:11:19.507Z,20.15
2023-02-17T06:13:47.771Z,17.05
2023-02-17T06:16:19.166Z,17.33
2023-02-17T06:18:47.396Z,42.00
2023-02-17T06:21:15.582Z,21.00
2023-02-17T06:23:43.820Z,23.88
2023-02-17T06:26:11.990Z,21.30
2023-02-17T06:28:41.549Z,25.42
2023-02-17T06:31:09.860Z,27.40
2023-02-17T06:33:38.117Z,37.90
2023-02-17T06:36:07.568Z,22.55
2023-02-17T06:38:35.946Z,18.95
2023-02-17T06:41:04.335Z,21.33
2023-02-17T06:43:32.762Z,22.38
2023-02-17T06:46:02.520Z,17.75
2023-02-17T06:48:33.082Z,20.30
2023-02-17T06:51:01.783Z,22.90
2023-02-17T06:53:29.977Z,17.83
2023-02-17T06:56:01.211Z,22.67
2023-02-17T06:58:29.495Z,22.75
2023-02-17T07:00:57.665Z,23.17
2023-02-17T07:03:27.319Z,17.23
2023-02-17T07:05:58.737Z,19.30
2023-02-17T07:08:27.021Z,28.20
2023-02-17T07:10:55.203Z,19.80
2023-02-17T07:13:23.478Z,18.27
2023-02-17T07:15:51.688Z,21.90
2023-02-17T07:18:19.866Z,18.43
2023-02-17T07:20:49.589Z,20.40
2023-02-17T07:23:18.034Z,19.73
2023-02-17T07:25:46.379Z,25.57
2023-02-17T07:28:14.547Z,21.33
2023-02-17T07:30:44.426Z,19.95
2023-02-17T07:33:12.920Z,24.50
2023-02-17T07:35:43.871Z,22.43
2023-02-17T07:38:13.944Z,26.20
2023-02-17T07:40:44.418Z,27.60
2023-02-17T07:43:12.600Z,23.17
2023-02-17T07:45:40.926Z,17.57
2023-02-17T07:48:09.085Z,35.37
2023-02-17T07:50:37.372Z,23.77
2023-02-17T07:53:05.582Z,20.30
2023-02-17T07:55:35.210Z,24.00
2023-02-17T07:58:03.376Z,18.30
2023-02-17T08:00:31.658Z,24.87
2023-02-17T08:03:00.924Z,18.37
2023-02-17T08:05:29.280Z,22.83
2023-02-17T08:08:11.350Z,20.90
2023-02-17T08:10:58.914Z,24.30
2023-02-17T08:13:29.811Z,19.70
2023-02-17T08:15:59.400Z,21.00
2023-02-17T08:18:29.146Z,18.40
2023-02-17T08:20:58.876Z,28.90
2023-02-17T08:23:27.158Z,29.63
2023-02-17T08:25:58.707Z,19.90
2023-02-17T08:28:27.098Z,18.97
2023-02-17T08:30:55.514Z,19.47
2023-02-17T08:33:23.790Z,29.77
2023-02-17T08:35:52.025Z,24.30
2023-02-17T08:38:20.302Z,25.50
2023-02-17T08:40:48.606Z,20.23
2023-02-17T08:43:18.252Z,27.93
2023-02-17T08:45:46.550Z,29.80
2023-02-17T08:48:14.826Z,16.97
2023-02-17T08:50:43.073Z,20.83
2023-02-17T08:53:11.356Z,16.00
2023-02-17T08:55:48.970Z,20.17
2023-02-17T08:58:19.539Z,16.87
2023-02-17T09:00:48.119Z,17.00
2023-02-17T09:03:16.503Z,27.90
2023-02-17T09:05:44.884Z,21.90
2023-02-17T09:08:13.146Z,23.30
2023-02-17T09:10:41.492Z,21.60
2023-02-17T09:13:09.680Z,25.20
2023-02-17T09:15:39.425Z,16.60
2023-02-17T09:18:07.674Z,14.50
2023-02-17T09:20:37.796Z,31.03
2023-02-17T09:23:07.799Z,18.20
2023-02-17T09:25:36.035Z,22.23
2023-02-17T09:28:04.364Z,21.50
2023-02-17T09:30:32.874Z,17.23
2023-02-17T09:33:03.785Z,16.60
2023-02-17T09:35:32.914Z,18.97
2023-02-17T09:38:01.460Z,22.80
2023-02-17T09:40:44.139Z,29.30
2023-02-17T09:43:15.693Z,24.20
2023-02-17T09:45:47.914Z,22.60
2023-02-17T09:48:20.290Z,25.30
2023-02-17T09:50:52.651Z,22.23
2023-02-17T09:53:29.807Z,33.87
2023-02-17T09:56:00.458Z,18.27
2023-02-17T09:58:34.763Z,23.23
2023-02-17T10:01:05.966Z,24.83
2023-02-17T10:03:40.684Z,16.67
2023-02-17T10:06:15.427Z,18.97
2023-02-17T10:08:50.054Z,23.57
2023-02-17T10:11:28.146Z,24.23
2023-02-17T10:14:00.728Z,28.73
2023-02-17T10:16:36.931Z,28.27
2023-02-17T10:19:14.020Z,20.10
2023-02-17T10:21:47.205Z,21.57
2023-02-17T10:24:18.455Z,25.27
2023-02-17T10:27:05.957Z,24.50
2023-02-17T10:29:43.259Z,25.70
2023-02-17T10:32:24.045Z,22.00
2023-02-17T10:35:05.553Z,23.90
2023-02-17T10:37:42.563Z,22.63
2023-02-17T10:40:18.221Z,20.53
2023-02-17T10:42:47.212Z,31.53
2023-02-17T10:45:26.518Z,22.40
2023-02-17T10:48:00.324Z,19.67
2023-02-17T10:50:30.048Z,22.07
2023-02-17T10:52:58.413Z,17.37
2023-02-17T10:55:34.980Z,21.93
2023-02-17T10:58:11.745Z,22.47
2023-02-17T11:00:40.113Z,29.73
2023-02-17T11:03:19.643Z,20.07
2023-02-17T11:05:56.960Z,17.27
2023-02-17T11:08:56.542Z,20.53
2023-02-17T11:11:26.722Z,33.60
2023-02-17T11:14:10.887Z,22.53
2023-02-17T11:16:41.363Z,18.20
2023-02-17T11:19:22.802Z,20.90
2023-02-17T11:21:54.623Z,27.17
2023-02-17T11:24:24.056Z,18.53
2023-02-17T11:27:00.430Z,16.77
2023-02-17T11:29:29.830Z,16.47
2023-02-17T11:32:01.679Z,16.17
2023-02-17T11:34:33.109Z,21.27
2023-02-17T11:37:07.926Z,23.13
2023-02-17T11:39:40.495Z,20.63
2023-02-17T11:42:17.215Z,32.43
2023-02-17T11:44:46.028Z,23.03
2023-02-17T11:47:23.536Z,24.57
2023-02-17T11:50:26.123Z,22.73
2023-02-17T11:53:17.889Z,20.23
2023-02-17T11:55:55.268Z,18.13
2023-02-17T11:58:34.950Z,16.80
2023-02-17T12:01:12.595Z,23.37
2023-02-17T12:04:12.477Z,28.87
2023-02-17T12:06:50.216Z,22.23
2023-02-17T12:09:27.001Z,26.80
2023-02-17T12:12:02.662Z,26.67
2023-02-17T12:14:45.669Z,16.83
2023-02-17T12:17:20.152Z,34.70
2023-02-17T12:20:00.245Z,17.30
2023-02-17T12:22:34.114Z,19.93
2023-02-17T12:25:23.420Z,15.33
2023-02-17T12:28:03.032Z,34.37
2023-02-17T12:30:48.393Z,34.77
2023-02-17T12:33:29.289Z,18.40
2023-02-17T12:36:02.605Z,19.50
2023-02-17T12:38:33.494Z,17.13
2023-02-17T12:41:08.374Z,18.40
2023-02-17T12:43:42.225Z,18.03
2023-02-17T12:46:15.272Z,16.33
2023-02-17T12:48:48.579Z,31.93
2023-02-17T12:51:23.624Z,18.63
2023-02-17T12:53:56.762Z,27.67
2023-02-17T12:57:06.969Z,23.23
2023-02-17T12:59:37.930Z,19.93
2023-02-17T13:02:08.767Z,11.30
2023-02-17T13:04:37.983Z,27.90
2023-02-17T13:07:24.036Z,23.27
2023-02-17T13:09:53.020Z,16.70
2023-02-17T13:12:41.666Z,17.60
2023-02-17T13:15:45.497Z,19.90
2023-02-17T13:18:27.576Z,20.90
2023-02-17T13:20:58.432Z,22.33
2023-02-17T13:23:34.952Z,17.40
2023-02-17T13:26:25.974Z,22.87
2023-02-17T13:28:55.989Z,21.47
2023-02-17T13:31:26.774Z,14.40
2023-02-17T13:33:59.273Z,14.33
2023-02-17T13:36:37.384Z,13.00
2023-02-17T13:39:08.551Z,16.50
2023-02-17T13:41:47.948Z,17.47
2023-02-17T13:44:27.929Z,10.90
2023-02-17T13:47:02.124Z,16.83
2023-02-17T13:49:35.101Z,19.03
2023-02-17T13:52:19.125Z,17.80
2023-02-17T13:54:55.106Z,12.20
2023-02-17T13:57:27.580Z,17.70
2023-02-17T14:00:10.408Z,16.47
2023-02-17T14:02:49.863Z,24.93
2023-02-17T14:05:22.357Z,12.10
2023-02-17T14:08:09.325Z,19.80
2023-02-17T14:10:37.918Z,18.53
2023-02-17T14:17:14.710Z,12.00
2023-02-17T14:19:54.156Z,11.53
2023-02-17T14:22:29.181Z,16.87
2023-02-17T14:25:03.918Z,18.83
2023-02-17T14:35:30.092Z,21.20
2023-02-17T14:47:25.463Z,11.93
2023-02-17T14:54:16.866Z,14.13
2023-02-17T15:28:27.589Z,14.23
2023-02-17T16:22:45.240Z,11.67
2023-02-17T16:25:26.781Z,14.77
2023-02-17T16:28:47.967Z,10.63
2023-02-17T17:28:29.510Z,16.90
2023-02-17T17:30:57.812Z,11.70
2023-02-17T17:33:25.941Z,10.70
2023-02-17T17:35:54.585Z,11.40
2023-02-17T17:38:22.749Z,9.33
2023-02-17T17:40:55.763Z,14.10
2023-02-17T17:43:24.682Z,10.77
2023-02-17T17:45:55.438Z,13.77
2023-02-17T17:48:23.737Z,15.43
2023-02-17T17:50:51.920Z,12.70
2023-02-17T17:53:20.146Z,10.03
2023-02-17T17:55:48.879Z,8.97
2023-02-17T17:58:17.357Z,16.50
2023-02-17T18:00:45.641Z,9.37
2023-02-17T18:03:15.196Z,12.47
2023-02-17T18:05:43.491Z,13.17
2023-02-17T18:08:12.469Z,13.13
2023-02-17T18:10:41.731Z,19.77
2023-02-17T18:13:11.925Z,11.17
2023-02-17T18:15:42.759Z,8.77
2023-02-17T18:18:11.819Z,13.00
2023-02-17T18:20:41.427Z,10.90
2023-02-17T18:23:09.705Z,9.00
2023-02-17T18:25:38.109Z,7.63
2023-02-17T18:28:06.428Z,9.97
2023-02-17T18:30:37.841Z,12.60
2023-02-17T18:33:06.602Z,7.77
2023-02-17T18:35:36.510Z,10.37
2023-02-17T18:38:06.353Z,9.20
2023-02-17T18:40:34.681Z,11.10
2023-02-17T18:43:02.942Z,9.07
2023-02-17T18:45:32.486Z,11.77
2023-02-17T18:48:01.102Z,12.47
2023-02-17T18:50:32.984Z,13.33
2023-02-17T18:53:05.450Z,9.90
2023-02-17T18:55:33.732Z,12.00
2023-02-17T18:58:01.891Z,12.50
2023-02-17T19:00:30.543Z,9.00
2023-02-17T19:02:58.752Z,13.60
2023-02-17T19:05:28.743Z,9.47
2023-02-17T19:07:57.214Z,13.87
2023-02-17T19:10:26.862Z,13.10
2023-02-17T19:12:55.063Z,8.13
2023-02-17T19:15:23.266Z,11.43
2023-02-17T19:17:56.761Z,12.07
2023-02-17T19:20:27.649Z,10.33
2023-02-17T19:22:55.969Z,11.43
2023-02-17T19:25:24.604Z,14.63
2023-02-17T19:27:54.207Z,11.83
2023-02-17T19:30:22.649Z,12.30
2023-02-17T19:32:53.475Z,13.37
2023-02-17T19:35:21.773Z,10.90
2023-02-17T19:37:49.928Z,11.73
2023-02-17T19:40:18.337Z,11.43
2023-02-17T19:42:46.827Z,15.77
2023-02-17T19:45:16.459Z,9.40
2023-02-17T19:47:46.190Z,15.90
2023-02-17T19:50:17.204Z,14.50
2023-02-17T19:52:48.298Z,11.20
2023-02-17T19:55:16.613Z,12.47
2023-02-17T19:57:44.880Z,15.10
2023-02-17T20:00:13.945Z,13.20
2023-02-17T20:02:45.953Z,10.47
2023-02-17T20:05:14.199Z,19.13
2023-02-17T20:07:42.396Z,11.67
2023-02-17T20:10:13.485Z,13.30
2023-02-17T20:12:41.712Z,16.33
2023-02-17T20:15:10.495Z,12.77
2023-02-17T20:17:39.235Z,12.87
2023-02-17T20:20:12.569Z,12.53
2023-02-17T20:22:40.746Z,8.20
2023-02-17T20:25:09.335Z,12.10
2023-02-17T20:27:39.748Z,17.37
2023-02-17T20:30:09.045Z,9.40
2023-02-17T20:32:37.810Z,11.33
2023-02-17T20:35:06.379Z,14.37
2023-02-17T20:37:36.077Z,14.80
2023-02-17T20:40:04.566Z,14.63
2023-02-17T20:42:32.829Z,12.53
2023-02-17T20:45:01.587Z,9.87
2023-02-17T20:47:30.222Z,12.10
2023-02-17T20:49:58.496Z,15.50
2023-02-17T20:52:28.273Z,15.80
2023-02-17T20:54:59.148Z,16.97
2023-02-17T20:57:28.115Z,10.90
2023-02-17T20:59:57.432Z,11.93
2023-02-17T21:02:27.971Z,16.27
2023-02-17T21:04:56.263Z,19.60
2023-02-17T21:07:24.727Z,8.17
2023-02-17T21:09:53.010Z,11.63
2023-02-17T21:12:22.575Z,13.80
2023-02-17T21:14:50.860Z,8.57
2023-02-17T21:17:21.558Z,8.90
2023-02-17T21:19:54.512Z,10.60
2023-02-17T21:22:22.812Z,12.20
2023-02-17T21:24:51.022Z,8.93
2023-02-17T21:27:19.490Z,10.30
2023-02-17T21:29:49.350Z,10.67
2023-02-17T21:32:17.675Z,11.00
2023-02-17T21:34:45.883Z,13.13
2023-02-17T21:37:18.311Z,13.97
2023-02-17T21:39:46.780Z,8.50
2023-02-17T21:42:15.162Z,8.50
2023-02-17T21:44:54.138Z,10.00
2023-02-17T21:47:23.949Z,9.43
2023-02-17T21:49:55.796Z,14.33
2023-02-17T21:52:24.205Z,6.43
2023-02-17T21:54:52.640Z,7.67
2023-02-17T21:57:20.817Z,8.87
2023-02-17T21:59:49.118Z,7.13
2023-02-17T22:02:17.468Z,9.03
2023-02-17T22:04:46.996Z,6.07
2023-02-17T22:07:17.570Z,8.43
2023-02-17T22:09:46.445Z,3.97
2023-02-17T22:12:14.645Z,5.67
2023-02-17T22:14:42.948Z,6.10
2023-02-17T22:17:11.231Z,14.00
2023-02-17T22:19:40.286Z,16.17
2023-02-17T22:22:10.175Z,5.07
2023-02-17T22:24:46.169Z,4.93
2023-02-17T22:27:14.443Z,3.30
2023-02-17T22:29:42.559Z,5.23
2023-02-17T22:32:10.823Z,4.47
2023-02-17T22:34:42.272Z,3.73
2023-02-17T22:37:12.005Z,3.00
2023-02-17T22:39:40.385Z,7.00
2023-02-17T22:42:08.657Z,3.13
2023-02-17T22:44:37.410Z,2.57
2023-02-17T22:47:05.718Z,3.13
2023-02-17T22:49:34.167Z,2.77
2023-02-17T22:52:02.368Z,7.40
2023-02-17T22:54:34.659Z,2.50
2023-02-17T22:57:05.066Z,2.70
2023-02-17T22:59:33.333Z,3.40
2023-02-17T23:02:03.748Z,4.60
2023-02-17T23:04:34.990Z,2.57
2023-02-17T23:07:03.195Z,2.77
2023-02-17T23:09:34.344Z,6.00
2023-02-17T23:12:07.782Z,3.60
2023-02-17T23:14:38.396Z,4.20
2023-02-17T23:17:09.415Z,4.07
2023-02-17T23:19:46.260Z,2.00
2023-02-17T23:22:16.719Z,3.30
2023-02-17T23:24:45.800Z,3.00
2023-02-17T23:27:18.001Z,2.60
2023-02-17T23:29:46.167Z,3.47
2023-02-17T23:32:14.305Z,2.87
2023-02-17T23:34:42.458Z,3.83
2023-02-17T23:37:10.629Z,2.70
2023-02-17T23:39:39.195Z,1.90
2023-02-17T23:42:07.798Z,3.27
2023-02-17T23:44:37.554Z,2.47
2023-02-17T23:47:05.910Z,2.93
2023-02-17T23:49:34.063Z,3.57
2023-02-17T23:52:02.674Z,4.33
2023-02-17T23:54:31.072Z,2.50
2023-02-17T23:56:59.292Z,3.50
2023-02-17T23:59:27.510Z,6.63
